Time;durP1;ratioP1;P1;durP2;ratioP2;P2;SDS_P1;SDS_P2;PMS_P1;PMS_P2;Temp;Humidity;BMP_temperature;BMP_pressure;BME280_temperature;BME280_humidity;BME280_pressure;Samples;Min_cycle;Max_cycle;Signal;HPM_P1;HPM_P2
2022/08/06 00:00:32;;;;;;;3.67;0.82;;;;;;;26.42;31.04;102365.28;5095455;28;20028;-54
2022/08/06 00:03:49;;;;;;;3.28;0.85;;;;;;;26.41;30.91;102360.88;5095073;28;20032;-58
2022/08/06 00:07:06;;;;;;;2.33;0.70;;;;;;;26.37;31.27;102355.56;5095079;28;20043;-52
2022/08/06 00:10:23;;;;;;;2.13;0.70;;;;;;;26.35;31.12;102359.00;5094974;28;20483;-47
2022/08/06 00:13:40;;;;;;;3.65;0.82;;;;;;;26.40;30.81;102360.00;5095115;28;20391;-46
2022/08/06 00:16:57;;;;;;;2.60;0.73;;;;;;;26.44;30.79;102367.13;5076694;28;20111;-49
2022/08/06 00:20:15;;;;;;;1.95;0.57;;;;;;;26.33;31.23;102358.97;5095022;28;20360;-46
2022/08/06 00:23:32;;;;;;;4.43;0.82;;;;;;;26.41;31.04;102353.88;5094393;28;20117;-52
2022/08/06 00:29:41;;;;;;;3.13;0.77;;;;;;;26.47;30.83;102346.16;5081944;28;20059;-57
2022/08/06 00:32:10;;;;;;;4.38;1.20;;;;;;;26.46;30.94;102347.00;5077087;28;20387;-53
2022/08/06 00:34:38;;;;;;;3.78;0.98;;;;;;;26.39;31.16;102355.59;5076956;28;20024;-48
2022/08/06 00:37:07;;;;;;;5.10;0.82;;;;;;;26.26;31.47;102358.78;5094397;28;20016;-46
2022/08/06 00:39:36;;;;;;;3.55;1.05;;;;;;;26.34;31.33;102352.84;5059971;28;20382;-49
2022/08/06 00:42:04;;;;;;;6.45;1.42;;;;;;;26.17;31.78;102347.16;5093366;28;20028;-46
2022/08/06 00:44:33;;;;;;;3.80;0.85;;;;;;;26.04;31.72;102345.03;5094169;28;20106;-54
2022/08/06 00:47:02;;;;;;;3.10;0.68;;;;;;;26.26;31.70;102343.00;5093625;28;20016;-48
2022/08/06 00:49:30;;;;;;;2.33;0.63;;;;;;;26.13;31.79;102336.50;5094346;28;20028;-46
2022/08/06 00:51:59;;;;;;;4.43;0.95;;;;;;;26.27;31.55;102339.50;5093565;28;20120;-45
2022/08/06 00:54:27;;;;;;;4.75;1.08;;;;;;;26.08;31.75;102326.72;5059580;28;20055;-50
2022/08/06 00:56:55;;;;;;;3.78;0.90;;;;;;;26.14;31.43;102335.66;5094108;28;20093;-45
2022/08/06 00:59:24;;;;;;;3.63;0.70;;;;;;;26.19;31.39;102323.53;5094227;28;20032;-51
2022/08/06 01:01:53;;;;;;;2.72;0.70;;;;;;;26.17;31.73;102334.00;5094021;28;20058;-45
2022/08/06 01:04:21;;;;;;;4.88;1.10;;;;;;;26.18;31.78;102345.44;5075846;28;20174;-49
2022/08/06 01:06:49;;;;;;;6.13;0.93;;;;;;;26.16;32.06;102340.09;5076073;28;20375;-57
2022/08/06 01:09:18;;;;;;;1.40;0.60;;;;;;;26.11;32.06;102327.66;5094003;28;20084;-51
2022/08/06 01:11:46;;;;;;;4.93;1.10;;;;;;;26.23;31.48;102334.16;5093826;28;20033;-51
2022/08/06 01:14:15;;;;;;;4.55;0.80;;;;;;;25.88;32.03;102294.69;5093885;28;20356;-45
2022/08/06 01:16:49;;;;;;;2.75;0.98;;;;;;;26.04;32.00;102329.25;5093813;28;20364;-45
2022/08/06 01:19:26;;;;;;;3.28;0.93;;;;;;;26.00;32.05;102332.63;5093961;28;20020;-44
2022/08/06 01:22:07;;;;;;;1.42;0.60;;;;;;;26.00;31.89;102316.88;5075731;28;20077;-48
2022/08/06 01:24:50;;;;;;;1.83;0.68;;;;;;;26.02;31.83;102309.91;5093341;28;20070;-44
2022/08/06 01:27:39;;;;;;;4.57;1.13;;;;;;;26.11;31.65;102315.44;5075553;28;20486;-55
2022/08/06 01:30:13;;;;;;;1.90;0.50;;;;;;;26.14;32.05;102327.78;5075491;28;20082;-49
2022/08/06 01:32:48;;;;;;;3.70;1.20;;;;;;;26.13;31.81;102321.66;5075839;28;20379;-54
2022/08/06 01:35:18;;;;;;;;;;;;;;;25.97;32.18;102324.69;5093819;28;20395;-44
2022/08/06 01:37:51;;;;;;;5.47;0.80;;;;;;;26.03;31.99;102306.44;5075351;28;19970;-45
2022/08/06 01:40:24;;;;;;;3.38;0.57;;;;;;;26.11;32.02;102319.78;5075538;28;20406;-48
2022/08/06 01:42:55;;;;;;;3.15;0.70;;;;;;;26.10;31.77;102324.16;5059670;28;20100;-51
2022/08/06 01:45:26;;;;;;;2.13;0.65;;;;;;;26.14;32.02;102333.03;5075729;28;20039;-48
2022/08/06 01:47:59;;;;;;;2.78;1.08;;;;;;;26.15;31.78;102330.44;5075271;28;20032;-58
2022/08/06 01:50:34;;;;;;;3.08;0.80;;;;;;;26.03;31.99;102328.38;5075733;28;20085;-55
2022/08/06 01:53:04;;;;;;;2.80;0.63;;;;;;;26.04;32.25;102326.63;5075820;28;20020;-49
2022/08/06 01:55:36;;;;;;;2.25;0.75;;;;;;;25.91;32.38;102321.03;5093535;28;20467;-50
2022/08/06 01:58:06;;;;;;;5.32;1.02;;;;;;;25.98;32.14;102319.47;5092570;28;20486;-48
2022/08/06 02:00:38;;;;;;;4.05;0.80;;;;;;;26.01;31.99;102316.91;5093260;28;20111;-48
2022/08/06 02:03:12;;;;;;;4.03;0.90;;;;;;;26.03;31.90;102320.47;5093545;28;20025;-53
2022/08/06 02:05:41;;;;;;;2.40;0.63;;;;;;;26.00;32.10;102315.13;5093329;28;20375;-45
2022/08/06 02:08:10;;;;;;;3.00;1.08;;;;;;;26.00;32.11;102315.13;5075456;28;20028;-57
2022/08/06 02:10:39;;;;;;;3.70;0.93;;;;;;;25.97;31.92;102299.28;5075536;28;20429;-49
2022/08/06 02:13:09;;;;;;;3.85;0.82;;;;;;;25.96;31.90;102304.50;5092747;28;20028;-58
2022/08/06 02:15:37;;;;;;;4.25;1.10;;;;;;;26.05;31.93;102300.38;5092877;28;20036;-56
2022/08/06 02:18:08;;;;;;;3.53;0.88;;;;;;;25.92;32.35;102308.78;5092987;28;20440;-52
2022/08/06 02:20:40;;;;;;;3.70;0.63;;;;;;;25.84;32.46;102300.69;5075617;28;20028;-51
2022/08/06 02:23:12;;;;;;;5.80;0.85;;;;;;;25.79;32.68;102300.56;5093592;28;20340;-57
2022/08/06 02:25:41;;;;;;;1.65;0.68;;;;;;;25.81;32.27;102295.38;5075202;28;20029;-53
2022/08/06 02:28:13;;;;;;;2.55;0.60;;;;;;;25.85;32.40;102289.31;5092816;28;20024;-52
2022/08/06 02:30:45;;;;;;;3.88;0.90;;;;;;;25.92;32.01;102293.91;5091209;28;20048;-57
2022/08/06 02:33:14;;;;;;;4.32;1.13;;;;;;;25.81;32.56;102294.47;5075289;28;20035;-48
2022/08/06 02:35:50;;;;;;;3.15;0.80;;;;;;;25.76;32.54;102289.97;5074675;28;20451;-53
2022/08/06 02:38:38;;;;;;;0.90;0.40;;;;;;;25.79;32.23;102282.19;5092488;28;20082;-48
2022/08/06 02:41:38;;;;;;;3.53;0.93;;;;;;;25.80;32.37;102290.97;5074881;28;20032;-47
2022/08/06 02:44:15;;;;;;;2.63;0.73;;;;;;;25.85;31.98;102288.44;5086000;28;20081;-54
2022/08/06 02:46:49;;;;;;;4.80;0.93;;;;;;;25.84;31.99;102287.53;5092828;28;20081;-48
2022/08/06 02:49:21;;;;;;;2.22;0.55;;;;;;;25.75;32.44;102287.31;5074785;28;20103;-54
2022/08/06 02:52:06;;;;;;;4.90;0.77;;;;;;;25.73;32.53;102276.75;5074889;28;20020;-51
2022/08/06 02:54:55;;;;;;;3.55;0.93;;;;;;;25.62;32.45;102276.50;5092638;28;20111;-47
2022/08/06 02:57:32;;;;;;;3.75;0.77;;;;;;;25.73;32.56;102279.38;5092223;28;20040;-53
2022/08/06 03:00:05;;;;;;;2.63;0.75;;;;;;;25.75;32.53;102271.56;5092119;28;20036;-53
2022/08/06 03:02:36;;;;;;;2.22;0.68;;;;;;;25.77;32.44;102277.75;5074944;28;20119;-53
2022/08/06 03:05:10;;;;;;;2.22;0.57;;;;;;;25.69;32.24;102268.75;5074745;28;20065;-56
2022/08/06 03:07:41;;;;;;;2.85;0.80;;;;;;;25.66;32.61;102276.53;5074646;28;20107;-52
2022/08/06 03:10:10;;;;;;;3.50;0.80;;;;;;;25.76;32.37;102273.34;5078290;28;20422;-45
2022/08/06 03:12:40;;;;;;;2.83;1.05;;;;;;;25.78;32.47;102271.63;5095775;28;20032;-52
2022/08/06 03:15:09;;;;;;;2.83;0.93;;;;;;;25.74;32.42;102269.78;5096238;28;20102;-57
2022/08/06 03:17:38;;;;;;;3.35;0.63;;;;;;;25.64;32.57;102271.25;5095975;28;20047;-55
2022/08/06 03:20:08;;;;;;;2.58;0.65;;;;;;;25.63;32.41;102264.22;5095778;28;20119;-44
2022/08/06 03:22:38;;;;;;;1.38;0.65;;;;;;;25.74;32.23;102275.91;5078237;28;20487;-54
2022/08/06 03:25:08;;;;;;;3.80;0.45;;;;;;;25.66;32.40;102266.03;5078140;28;20440;-53
2022/08/06 03:27:37;;;;;;;3.38;0.75;;;;;;;25.75;32.43;102261.03;5078131;28;20024;-56
2022/08/06 03:30:06;;;;;;;3.30;1.00;;;;;;;25.83;32.05;102266.50;5077653;28;20376;-52
2022/08/06 03:32:35;;;;;;;2.72;0.68;;;;;;;25.82;32.22;102284.00;5095643;28;20032;-53
2022/08/06 03:35:05;;;;;;;2.13;0.70;;;;;;;25.83;32.11;102280.50;5078366;28;20039;-54
2022/08/06 03:37:35;;;;;;;3.63;1.00;;;;;;;25.72;32.44;102281.97;5077464;28;20070;-47
2022/08/06 03:40:06;;;;;;;1.33;0.40;;;;;;;25.62;32.61;102284.38;5077718;28;20024;-57
2022/08/06 03:42:34;;;;;;;3.03;0.70;;;;;;;25.63;32.56;102294.03;5095682;28;20474;-47
2022/08/06 03:45:03;;;;;;;2.60;0.75;;;;;;;25.55;32.80;102292.94;5095573;28;20028;-49
2022/08/06 03:47:38;;;;;;;1.52;0.43;;;;;;;25.46;32.89;102280.44;5095353;28;20016;-52
2022/08/06 03:50:13;;;;;;;2.15;0.55;;;;;;;25.50;32.60;102289.28;5095371;28;20360;-53
2022/08/06 03:52:45;;;;;;;2.85;0.45;;;;;;;25.49;32.86;102282.25;5077537;28;20035;-53
2022/08/06 03:55:18;;;;;;;1.90;0.60;;;;;;;25.48;33.29;102284.00;5077468;28;20028;-51
2022/08/06 03:57:49;;;;;;;3.53;0.80;;;;;;;25.50;32.83;102285.78;5095145;28;20032;-58
2022/08/06 04:00:22;;;;;;;1.08;0.50;;;;;;;25.46;32.72;102285.69;5061238;28;20027;-54
2022/08/06 04:02:53;;;;;;;2.22;0.50;;;;;;;25.34;33.27;102283.56;5095383;28;20030;-55
2022/08/06 04:05:25;;;;;;;2.42;0.65;;;;;;;25.38;33.17;102281.94;5077094;28;20470;-54
2022/08/06 04:07:58;;;;;;;1.90;0.60;;;;;;;25.44;32.77;102283.88;5077537;28;20119;-52
2022/08/06 04:10:29;;;;;;;1.80;0.52;;;;;;;25.55;32.82;102285.03;5095073;28;20024;-52
2022/08/06 04:12:58;;;;;;;3.50;0.90;;;;;;;25.53;33.14;102280.59;5077382;28;20031;-52
2022/08/06 04:15:27;;;;;;;2.40;0.50;;;;;;;25.55;32.93;102292.06;5094990;28;20027;-51
2022/08/06 04:17:56;;;;;;;2.33;0.60;;;;;;;25.52;32.87;102287.59;5094764;28;20372;-53
2022/08/06 04:20:25;;;;;;;3.65;0.60;;;;;;;25.53;33.06;102289.38;5094423;28;20035;-52
2022/08/06 04:22:54;;;;;;;2.50;0.75;;;;;;;25.51;33.23;102285.81;5095405;28;20032;-55
2022/08/06 04:25:23;;;;;;;4.43;1.00;;;;;;;25.55;32.93;102287.66;5076971;28;20020;-47
2022/08/06 04:27:53;;;;;;;2.75;0.65;;;;;;;25.54;33.13;102285.88;5076530;28;20111;-56
2022/08/06 04:30:26;;;;;;;1.38;0.50;;;;;;;25.69;32.75;102274.00;5076528;28;20048;-49
2022/08/06 04:32:55;;;;;;;1.45;0.60;;;;;;;25.67;32.61;102281.88;5076658;28;20051;-51
2022/08/06 04:35:23;;;;;;;4.28;0.80;;;;;;;25.58;33.05;102274.63;5094822;28;20368;-53
2022/08/06 04:37:53;;;;;;;3.28;0.57;;;;;;;25.44;33.21;102276.00;5094126;28;20024;-45
2022/08/06 04:40:22;;;;;;;3.13;0.80;;;;;;;25.53;32.88;102286.72;5076581;28;20173;-57
2022/08/06 04:42:51;;;;;;;1.65;0.77;;;;;;;25.51;33.13;102277.91;5094426;28;20023;-57
2022/08/06 04:45:20;;;;;;;3.50;0.75;;;;;;;25.54;33.28;102288.53;5094358;28;20024;-56
2022/08/06 04:47:49;;;;;;;4.38;0.70;;;;;;;25.58;32.90;102277.25;5076440;28;20475;-46
2022/08/06 04:50:18;;;;;;;4.22;1.02;;;;;;;25.45;33.40;102281.28;5094368;28;20030;-48
2022/08/06 04:52:47;;;;;;;1.95;0.40;;;;;;;25.49;33.35;102279.59;5094092;28;20024;-57
2022/08/06 04:55:18;;;;;;;3.85;1.00;;;;;;;25.48;33.23;102288.38;5093668;28;20020;-49
2022/08/06 04:57:46;;;;;;;4.05;1.10;;;;;;;25.44;33.27;102284.75;5093906;28;20028;-51
2022/08/06 05:00:15;;;;;;;2.08;0.80;;;;;;;25.47;33.61;102286.59;5094000;28;20028;-49
2022/08/06 05:02:43;;;;;;;3.20;0.93;;;;;;;25.38;33.55;102292.44;5094337;28;20024;-51
2022/08/06 05:05:14;;;;;;;3.42;0.90;;;;;;;25.38;33.86;102288.91;5076552;28;20020;-57
2022/08/06 05:07:45;;;;;;;2.65;0.80;;;;;;;25.40;33.63;102300.34;5076434;28;20425;-56
2022/08/06 05:10:13;;;;;;;4.45;1.05;;;;;;;25.46;33.52;102297.94;5094203;28;20055;-44
2022/08/06 05:12:47;;;;;;;2.60;0.90;;;;;;;25.41;33.63;102297.75;5076029;28;20028;-52
2022/08/06 05:15:35;;;;;;;2.72;0.82;;;;;;;25.29;33.72;102300.03;5075663;28;20483;-57
2022/08/06 05:18:17;;;;;;;5.22;1.13;;;;;;;25.20;34.17;102299.78;5093659;28;20031;-45
2022/08/06 05:20:49;;;;;;;5.20;1.10;;;;;;;25.32;33.93;102310.66;5093765;28;20028;-52
2022/08/06 05:23:30;;;;;;;3.20;1.10;;;;;;;25.36;33.87;102307.25;5092517;28;20360;-48
2022/08/06 05:25:59;;;;;;;3.28;0.70;;;;;;;25.38;33.75;102308.19;5093972;28;20052;-57
2022/08/06 05:28:28;;;;;;;4.07;0.90;;;;;;;25.39;33.90;102309.97;5075883;28;20028;-44
2022/08/06 05:30:55;;;;;;;3.70;0.95;;;;;;;25.41;34.04;102316.13;5092362;28;20055;-56
2022/08/06 05:33:36;;;;;;;3.75;0.85;;;;;;;25.34;33.82;102316.84;5075526;28;20053;-50
2022/08/06 05:36:07;;;;;;;3.40;0.88;;;;;;;25.37;33.49;102302.88;5093523;28;20032;-44
2022/08/06 05:38:40;;;;;;;5.07;1.20;;;;;;;25.39;34.32;102325.75;5093627;28;20032;-53
2022/08/06 05:41:11;;;;;;;3.92;0.82;;;;;;;25.36;33.89;102308.97;5093624;28;20028;-54
2022/08/06 05:43:40;;;;;;;5.97;1.20;;;;;;;25.58;33.75;102326.28;5093201;28;20502;-48
2022/08/06 05:46:12;;;;;;;4.78;0.88;;;;;;;25.57;33.88;102324.50;5093235;28;20109;-46
2022/08/06 05:48:45;;;;;;;5.15;0.60;;;;;;;25.62;33.71;102325.50;5093670;28;20077;-52
2022/08/06 05:51:26;;;;;;;2.35;0.73;;;;;;;25.65;33.40;102338.75;5093468;28;20024;-55
2022/08/06 05:53:58;;;;;;;5.10;0.70;;;;;;;25.70;33.58;102333.59;5075765;28;20039;-51
2022/08/06 05:56:30;;;;;;;3.20;1.00;;;;;;;25.73;33.77;102334.56;5075808;28;20108;-44
2022/08/06 05:59:03;;;;;;;7.57;1.02;;;;;;;25.70;34.16;102329.25;5093273;28;20103;-48
2022/08/06 06:01:33;;;;;;;5.43;1.50;;;;;;;25.78;33.88;102343.47;5093545;28;20042;-44
2022/08/06 06:04:01;;;;;;;2.35;0.93;;;;;;;25.87;33.58;102344.59;5075939;28;20069;-44
2022/08/06 06:06:30;;;;;;;6.07;1.25;;;;;;;25.91;33.93;102331.56;5093084;28;20028;-50
2022/08/06 06:08:59;;;;;;;4.57;0.80;;;;;;;25.91;33.78;102338.53;5075568;28;20364;-58
2022/08/06 06:11:28;;;;;;;4.72;1.30;;;;;;;25.83;33.97;102337.47;5093065;28;20028;-52
2022/08/06 06:13:57;;;;;;;4.30;1.20;;;;;;;25.88;34.22;102342.00;5074913;28;20386;-45
2022/08/06 06:16:50;;;;;;;5.65;1.05;;;;;;;25.91;34.04;102335.91;5092544;28;20115;-49
2022/08/06 06:19:39;;;;;;;3.88;0.98;;;;;;;25.99;33.92;102342.28;5075331;28;20073;-47
2022/08/06 06:22:20;;;;;;;3.20;1.05;;;;;;;25.95;33.94;102319.38;5070560;28;20545;-44
2022/08/06 06:25:12;;;;;;;6.85;1.00;;;;;;;26.13;33.93;102352.28;5075178;28;20042;-45
2022/08/06 06:28:01;;;;;;;2.40;0.95;;;;;;;26.18;33.89;102341.03;5075164;28;20024;-44
2022/08/06 06:30:51;;;;;;;5.40;1.15;;;;;;;26.25;33.69;102342.09;5068149;28;20407;-56
2022/08/06 06:33:26;;;;;;;6.38;1.67;;;;;;;26.34;33.79;102342.31;5088833;28;20028;-44
2022/08/06 06:35:57;;;;;;;4.38;1.20;;;;;;;26.38;33.81;102341.56;5092910;28;20032;-51
2022/08/06 06:38:44;;;;;;;6.07;1.35;;;;;;;26.44;33.89;102345.16;5092787;28;20036;-53
2022/08/06 06:41:30;;;;;;;4.85;1.90;;;;;;;26.45;33.88;102355.75;5086515;28;20487;-44
2022/08/06 06:44:13;;;;;;;5.78;1.48;;;;;;;26.47;33.98;102340.00;5096064;28;20368;-50
2022/08/06 06:46:50;;;;;;;6.00;1.17;;;;;;;26.57;34.06;102352.50;5096711;28;20153;-47
2022/08/06 06:49:40;;;;;;;2.83;1.00;;;;;;;26.59;33.79;102350.81;5078993;28;20074;-56
2022/08/06 06:52:20;;;;;;;3.72;1.13;;;;;;;26.65;33.91;102356.22;5091254;28;20032;-44
2022/08/06 06:54:54;;;;;;;4.43;1.13;;;;;;;26.69;33.85;102351.91;5078720;28;20470;-45
2022/08/06 06:57:31;;;;;;;6.88;1.38;;;;;;;26.72;33.88;102346.72;5078671;28;20032;-51
2022/08/06 07:00:04;;;;;;;3.58;0.90;;;;;;;26.74;33.88;102349.38;5078395;28;20151;-44
2022/08/06 07:02:35;;;;;;;7.10;1.65;;;;;;;26.72;33.95;102354.63;5096356;28;20106;-49
2022/08/06 07:05:05;;;;;;;8.10;1.15;;;;;;;26.80;33.98;102355.75;5096433;28;20024;-44
2022/08/06 07:07:36;;;;;;;9.32;2.03;;;;;;;26.82;33.93;102369.78;5096113;28;20024;-44
2022/08/06 07:10:06;;;;;;;5.45;1.17;;;;;;;26.97;33.83;102357.88;5078403;28;20039;-50
2022/08/06 07:12:35;;;;;;;4.03;1.02;;;;;;;26.86;33.83;102351.44;5096631;28;20032;-53
2022/08/06 07:15:05;;;;;;;6.30;1.20;;;;;;;27.00;33.88;102363.16;5061552;28;20032;-44
2022/08/06 07:17:36;;;;;;;3.53;1.45;;;;;;;26.97;34.06;102355.22;5078154;28;20119;-44
2022/08/06 07:20:07;;;;;;;3.53;0.98;;;;;;;27.02;33.61;102360.59;5078085;28;20036;-45
2022/08/06 07:22:37;;;;;;;7.30;1.40;;;;;;;27.05;33.84;102366.81;5078072;28;20077;-44
2022/08/06 07:25:08;;;;;;;4.38;1.20;;;;;;;27.12;33.96;102375.72;5078611;28;20103;-44
2022/08/06 07:27:40;;;;;;;8.00;1.83;;;;;;;27.13;34.07;102367.88;5095890;28;20363;-44
2022/08/06 07:30:09;;;;;;;7.53;1.48;;;;;;;26.95;33.92;102338.50;5096196;28;20040;-44
2022/08/06 07:32:38;;;;;;;5.60;1.63;;;;;;;27.19;33.71;102358.31;5078066;28;20054;-44
2022/08/06 07:35:07;;;;;;;6.95;1.55;;;;;;;27.21;33.60;102367.13;5095791;28;20115;-44
2022/08/06 07:37:37;;;;;;;3.67;1.20;;;;;;;27.24;33.77;102364.56;5061288;28;20115;-47
2022/08/06 07:40:07;;;;;;;5.38;1.55;;;;;;;27.28;33.81;102369.94;5077796;28;20024;-57
2022/08/06 07:42:37;;;;;;;5.50;1.50;;;;;;;27.14;33.66;102339.78;5077378;28;20107;-44
2022/08/06 07:45:07;;;;;;;6.00;1.30;;;;;;;27.29;33.76;102360.31;5077488;28;20485;-59
2022/08/06 07:47:40;;;;;;;5.90;1.58;;;;;;;27.24;33.98;102362.81;5078248;28;20024;-45
2022/08/06 07:50:12;;;;;;;7.18;1.67;;;;;;;27.26;34.07;102357.59;5095606;28;20107;-44
2022/08/06 07:52:41;;;;;;;7.95;1.23;;;;;;;27.30;33.66;102355.06;5095925;28;20031;-44
2022/08/06 07:55:11;;;;;;;9.70;1.60;;;;;;;27.28;33.50;102350.63;5094991;28;20021;-46
2022/08/06 07:57:40;;;;;;;4.65;1.63;;;;;;;27.34;33.39;102360.38;5060934;28;20364;-46
2022/08/06 08:00:09;;;;;;;6.95;1.63;;;;;;;27.31;33.69;102348.03;5095349;28;20472;-44
2022/08/06 08:02:38;;;;;;;5.88;1.73;;;;;;;27.40;33.38;102357.84;5077712;28;20415;-47
2022/08/06 08:07:55;;;;;;;5.45;1.30;;;;;;;27.43;33.57;102361.47;5088659;28;20032;-43
2022/08/06 08:10:24;;;;;;;5.63;1.10;;;;;;;27.43;33.38;102355.28;5095298;28;20028;-43
2022/08/06 08:12:53;;;;;;;3.47;1.10;;;;;;;27.50;33.26;102366.88;5077366;28;20032;-49
2022/08/06 08:15:21;;;;;;;3.53;1.40;;;;;;;27.56;33.08;102359.09;5077510;28;20024;-44
2022/08/06 08:17:51;;;;;;;5.10;1.27;;;;;;;27.57;33.07;102359.13;5077121;28;20119;-50
2022/08/06 08:20:19;;;;;;;9.77;1.45;;;;;;;27.63;32.74;102350.47;5094884;28;20123;-46
2022/08/06 08:22:48;;;;;;;3.25;1.10;;;;;;;27.67;32.48;102347.00;5076967;28;20101;-54
2022/08/06 08:25:18;;;;;;;4.55;1.13;;;;;;;27.73;32.47;102340.97;5095090;28;20024;-44
2022/08/06 08:27:46;;;;;;;4.55;1.35;;;;;;;27.65;32.38;102345.22;5095043;28;20021;-56
2022/08/06 08:30:15;;;;;;;3.97;1.13;;;;;;;27.74;32.34;102346.28;5094683;28;20093;-43
2022/08/06 08:32:43;;;;;;;5.05;1.25;;;;;;;27.69;32.25;102347.94;5094964;28;20024;-46
2022/08/06 08:35:15;;;;;;;4.32;1.08;;;;;;;27.79;31.58;102346.38;5095001;28;20021;-45
2022/08/06 08:37:43;;;;;;;7.38;1.30;;;;;;;27.85;31.41;102348.22;5076718;28;20104;-44
2022/08/06 08:40:12;;;;;;;3.50;0.88;;;;;;;27.89;31.36;102350.06;5094651;28;20024;-57
2022/08/06 08:42:53;;;;;;;4.47;0.88;;;;;;;27.81;30.65;102365.75;5076548;28;20134;-47
2022/08/06 08:45:22;;;;;;;8.05;1.45;;;;;;;27.84;30.71;102349.97;5094978;28;20036;-44
2022/08/06 08:47:52;;;;;;;9.88;1.15;;;;;;;27.89;30.23;102358.84;5094763;28;20095;-46
2022/08/06 08:50:23;;;;;;;7.40;1.02;;;;;;;27.90;29.43;102360.63;5094581;28;20024;-44
2022/08/06 08:52:53;;;;;;;5.43;1.08;;;;;;;27.92;30.36;102360.66;5076947;28;20526;-57
2022/08/06 08:55:25;;;;;;;7.90;1.23;;;;;;;27.93;30.27;102351.00;5076519;28;20032;-44
2022/08/06 08:57:55;;;;;;;3.95;1.27;;;;;;;27.99;30.14;102362.53;5094809;28;20498;-56
2022/08/06 09:00:24;;;;;;;4.38;1.02;;;;;;;27.93;29.96;102351.91;5076738;28;20111;-45
2022/08/06 09:02:53;;;;;;;2.92;1.13;;;;;;;27.94;29.24;102358.94;5094662;28;20024;-48
2022/08/06 09:05:22;;;;;;;2.92;1.00;;;;;;;27.84;29.14;102336.78;5075680;28;20027;-44
2022/08/06 09:07:52;;;;;;;5.43;1.30;;;;;;;28.00;28.85;102356.41;5076076;28;20027;-58
2022/08/06 09:10:21;;;;;;;3.35;0.90;;;;;;;28.01;27.87;102359.94;5059495;28;20028;-44
2022/08/06 09:12:50;;;;;;;3.38;0.80;;;;;;;27.97;27.93;102340.53;5075906;28;20025;-54
2022/08/06 09:15:19;;;;;;;2.75;0.77;;;;;;;28.07;28.21;102351.25;5093942;28;20035;-43
2022/08/06 09:17:48;;;;;;;5.05;1.30;;;;;;;28.07;27.35;102354.75;5093917;28;20425;-45
2022/08/06 09:20:17;;;;;;;4.25;1.00;;;;;;;28.00;27.43;102352.91;5093728;28;20023;-43
2022/08/06 09:22:49;;;;;;;3.50;1.08;;;;;;;28.09;26.66;102353.03;5076210;28;20031;-44
2022/08/06 09:25:37;;;;;;;4.40;1.00;;;;;;;28.06;27.22;102347.72;5061065;28;20039;-46
2022/08/06 09:28:11;;;;;;;4.53;0.90;;;;;;;28.09;27.48;102347.75;5093520;28;20461;-44
2022/08/06 09:30:40;;;;;;;3.30;0.90;;;;;;;28.17;27.16;102359.38;5092275;28;20044;-44
2022/08/06 09:33:14;;;;;;;4.40;0.75;;;;;;;28.13;27.29;102351.41;5076308;28;20567;-44
2022/08/06 09:35:42;;;;;;;7.57;0.90;;;;;;;28.14;27.35;102350.50;5094157;28;20032;-44
2022/08/06 09:38:11;;;;;;;3.35;0.90;;;;;;;28.11;27.84;102350.47;5093589;28;20028;-43
2022/08/06 09:40:39;;;;;;;3.58;0.95;;;;;;;28.08;26.86;102348.63;5075752;28;20107;-44
2022/08/06 09:43:08;;;;;;;3.17;0.77;;;;;;;28.10;27.33;102352.22;5075808;28;20073;-48
2022/08/06 09:45:46;;;;;;;3.33;0.80;;;;;;;28.07;27.41;102351.25;5093604;28;20016;-43
2022/08/06 09:48:14;;;;;;;3.97;0.65;;;;;;;28.15;27.63;102365.47;5093700;28;20077;-44
2022/08/06 09:50:45;;;;;;;4.40;0.73;;;;;;;28.12;27.26;102347.00;5093071;28;20036;-43
2022/08/06 09:53:15;;;;;;;4.30;0.90;;;;;;;28.17;27.43;102364.66;5093219;28;20024;-44
2022/08/06 09:55:45;;;;;;;3.63;0.90;;;;;;;28.14;26.11;102361.06;5093784;28;20031;-43
2022/08/06 09:58:14;;;;;;;4.13;0.77;;;;;;;28.17;26.11;102348.84;5093530;28;20028;-44
2022/08/06 10:00:43;;;;;;;1.98;0.65;;;;;;;28.18;26.10;102365.53;5094113;28;20044;-44
2022/08/06 10:03:11;;;;;;;3.17;0.70;;;;;;;28.22;26.21;102362.09;5093644;28;20467;-44
2022/08/06 10:05:41;;;;;;;2.88;0.98;;;;;;;28.21;26.07;102360.31;5093043;28;20032;-45
2022/08/06 10:08:16;;;;;;;4.03;0.63;;;;;;;28.22;26.25;102359.47;5092671;28;20030;-44
2022/08/06 10:10:45;;;;;;;;;;;;;;;28.28;25.26;102363.94;5093643;28;20028;-43
2022/08/06 10:13:17;;;;;;;3.30;0.85;;;;;;;28.31;26.42;102369.28;5093194;28;20027;-44
2022/08/06 10:15:46;;;;;;;2.50;0.90;;;;;;;28.26;26.39;102349.84;5093466;28;20364;-43
2022/08/06 10:18:31;;;;;;;4.43;0.90;;;;;;;28.31;26.49;102356.09;5077515;28;20042;-43
2022/08/06 10:21:06;;;;;;;2.90;0.77;;;;;;;28.28;25.09;102358.66;5097271;28;20425;-44
2022/08/06 10:23:37;;;;;;;3.35;0.80;;;;;;;28.33;24.59;102357.00;5079962;28;20034;-45
2022/08/06 10:26:08;;;;;;;3.92;0.80;;;;;;;28.35;25.32;102363.19;5097424;28;20024;-48
2022/08/06 10:28:38;;;;;;;4.15;0.95;;;;;;;28.32;25.28;102350.81;5079549;28;20487;-43
2022/08/06 10:31:10;;;;;;;1.33;0.40;;;;;;;28.24;25.59;102341.00;5097089;28;20131;-43
2022/08/06 10:33:42;;;;;;;3.13;0.70;;;;;;;28.37;25.04;102342.09;5097161;28;20024;-46
2022/08/06 10:36:13;;;;;;;3.03;0.60;;;;;;;28.29;24.54;102341.97;5097121;28;20062;-45
2022/08/06 10:38:46;;;;;;;3.42;0.77;;;;;;;28.38;23.78;102347.38;5096732;28;20034;-43
2022/08/06 10:41:15;;;;;;;5.00;0.70;;;;;;;28.31;23.74;102338.50;5097042;28;20049;-45
2022/08/06 10:43:44;;;;;;;3.95;0.80;;;;;;;28.37;23.88;102345.66;5097026;28;20020;-43
2022/08/06 10:46:15;;;;;;;3.65;0.95;;;;;;;28.26;22.94;102337.56;5079408;28;20458;-44
2022/08/06 10:48:46;;;;;;;2.97;0.60;;;;;;;28.39;23.38;102341.25;5079951;28;20456;-44
2022/08/06 10:51:16;;;;;;;1.65;0.55;;;;;;;28.39;23.75;102351.81;5097106;28;20028;-43
2022/08/06 10:53:45;;;;;;;4.82;0.77;;;;;;;28.31;23.11;102322.66;5079329;28;20080;-43
2022/08/06 10:56:16;;;;;;;3.33;0.70;;;;;;;28.24;22.74;102323.44;5096603;28;20027;-45
2022/08/06 10:58:45;;;;;;;5.45;0.70;;;;;;;28.25;23.05;102312.03;5078659;28;20118;-46
2022/08/06 11:01:24;;;;;;;2.67;0.85;;;;;;;28.17;23.00;102321.53;5096578;28;20024;-48
2022/08/06 11:04:30;;;;;;;3.13;0.90;;;;;;;28.26;22.94;102327.00;5096698;28;20393;-44
2022/08/06 11:07:09;;;;;;;2.83;0.75;;;;;;;28.33;23.01;102334.13;5087391;28;20040;-45
2022/08/06 11:09:42;;;;;;;2.92;0.70;;;;;;;28.33;23.04;102323.56;5096431;28;20372;-43
2022/08/06 11:12:33;;;;;;;3.13;0.63;;;;;;;28.32;22.56;102324.44;5061948;28;20035;-43
2022/08/06 11:15:00;;;;;;;1.23;0.68;;;;;;;28.40;22.82;102314.00;5107075;28;20035;-47
2022/08/06 11:17:43;;;;;;;5.18;0.70;;;;;;;28.46;22.79;102305.31;5113232;28;20023;-44
2022/08/06 11:20:33;;;;;;;2.53;0.60;;;;;;;28.49;21.81;102315.88;5095272;28;20103;-43
2022/08/06 11:23:02;;;;;;;5.78;0.70;;;;;;;28.50;21.70;102312.38;5113479;28;20023;-46
2022/08/06 11:25:53;;;;;;;3.00;0.73;;;;;;;28.49;21.44;102307.97;5113200;28;20020;-46
2022/08/06 11:28:39;;;;;;;1.15;0.45;;;;;;;28.30;20.94;102283.06;5105361;28;20036;-44
2022/08/06 11:31:08;;;;;;;5.32;0.90;;;;;;;28.43;21.51;102300.84;5094689;28;20558;-43
2022/08/06 11:33:37;;;;;;;3.38;0.77;;;;;;;28.35;20.17;102302.50;5112444;28;20039;-46
2022/08/06 11:36:09;;;;;;;1.70;0.60;;;;;;;28.33;21.11;102299.81;5113555;28;20039;-45
2022/08/06 11:38:46;;;;;;;1.88;0.68;;;;;;;28.34;21.62;102298.09;5113445;28;20386;-43
2022/08/06 11:41:21;;;;;;;5.28;0.55;;;;;;;28.16;21.27;102281.09;5113451;28;20027;-44
2022/08/06 11:43:53;;;;;;;2.50;0.50;;;;;;;28.28;21.84;102287.41;5112332;28;20016;-43
2022/08/06 11:46:24;;;;;;;2.45;0.50;;;;;;;28.37;21.21;102276.13;5109587;28;20020;-44
2022/08/06 11:49:04;;;;;;;5.82;0.68;;;;;;;28.33;21.79;102273.44;5113273;28;20051;-44
2022/08/06 11:52:02;;;;;;;1.65;0.60;;;;;;;28.40;21.97;102265.63;5113496;28;20023;-45
2022/08/06 11:54:32;;;;;;;2.05;0.60;;;;;;;28.39;21.20;102274.41;5108838;28;20035;-42
2022/08/06 11:57:01;;;;;;;2.28;0.55;;;;;;;28.43;21.06;102268.31;5113416;28;20549;-44
2022/08/06 11:59:31;;;;;;;2.95;0.60;;;;;;;28.30;21.99;102251.41;5112230;28;20092;-45
2022/08/06 12:01:59;;;;;;;1.85;0.40;;;;;;;28.42;22.16;102258.63;5091994;28;20088;-43